Hubertus, Wisconsin
Current Conditions -  °F | °C
As of 11:45 AM on Monday 22 Dec 2014 (Local Time) from KMWC Reporting Station
Haze Haze  
Wind Chill: 28°   Ceiling: 1100
Heat Index: 36°   Visibility: 5mi
Dew Point: 30°   Wind: 12mph
Humidity: 81%   Direction: 120°ESE
Pressure: 29.85"   Gusts: 17mph
Location:  43.24°N, 88.22°W
Report Text: KMWC 221745Z AUTO 12010G15KT 5SM HZ BKN011 OVC075 02/M01 A2985
Loading
Personal Weather Stations






























Interactive Weather Map New forecast layout! Learn more

10-Day Weather Forecast

Advertisements
Track Severe Weather on mobile